Time;durP1;ratioP1;P1;durP2;ratioP2;P2;SDS_P1;SDS_P2;PMS_P1;PMS_P2;Temp;Humidity;BMP_temperature;BMP_pressure;BME280_temperature;BME280_humidity;BME280_pressure;Samples;Min_cycle;Max_cycle;Signal;HPM_P1;HPM_P2
2022/07/01 00:00:51;;;;;;;810.30;734.73;;;13.50;99.90;;;;;;4980686;28;20455;-84
2022/07/01 00:03:22;;;;;;;800.03;728.10;;;13.40;99.90;;;;;;4980955;28;20475;-83
2022/07/01 00:05:49;;;;;;;792.93;723.03;;;13.50;99.90;;;;;;4998632;28;20457;-84
2022/07/01 00:08:18;;;;;;;782.93;713.73;;;13.60;99.90;;;;;;5001148;28;20470;-82
2022/07/01 00:10:49;;;;;;;785.93;715.70;;;13.50;99.90;;;;;;5000619;28;20478;-84
2022/07/01 00:13:18;;;;;;;815.17;744.57;;;13.50;99.90;;;;;;5000815;28;20454;-83
2022/07/01 00:15:45;;;;;;;800.67;728.50;;;13.40;99.90;;;;;;5001156;28;20525;-83
2022/07/01 00:18:14;;;;;;;815.03;742.03;;;13.40;99.90;;;;;;5000405;28;20489;-82
2022/07/01 00:20:43;;;;;;;811.90;737.67;;;13.40;99.90;;;;;;5000971;28;20866;-84
2022/07/01 00:23:14;;;;;;;807.93;733.63;;;13.40;99.90;;;;;;5000074;28;20457;-84
2022/07/01 00:25:43;;;;;;;840.50;765.20;;;13.40;99.90;;;;;;5000739;28;20442;-84
2022/07/01 00:28:10;;;;;;;815.60;741.60;;;13.30;99.90;;;;;;5000277;28;20481;-84
2022/07/01 00:30:41;;;;;;;814.17;739.20;;;13.40;99.90;;;;;;5000474;28;20478;-84
2022/07/01 00:33:14;;;;;;;814.03;739.67;;;13.30;99.90;;;;;;5001741;28;20461;-84
2022/07/01 00:35:42;;;;;;;821.53;747.40;;;13.40;99.90;;;;;;5004705;28;20476;-84
2022/07/01 00:38:11;;;;;;;806.57;734.07;;;13.50;99.90;;;;;;5004438;28;20470;-83
2022/07/01 00:40:38;;;;;;;805.93;734.13;;;13.50;99.90;;;;;;5004684;28;20541;-84
2022/07/01 00:43:06;;;;;;;800.70;728.30;;;13.50;99.90;;;;;;5005274;28;20461;-84
2022/07/01 00:45:35;;;;;;;828.40;755.27;;;13.50;99.90;;;;;;5004988;28;20485;-84
2022/07/01 00:48:06;;;;;;;811.33;737.10;;;13.50;99.90;;;;;;5004508;28;21040;-84
2022/07/01 00:50:33;;;;;;;818.23;743.13;;;13.50;99.90;;;;;;5004741;28;20496;-84
2022/07/01 00:53:01;;;;;;;815.13;740.37;;;13.60;99.90;;;;;;5004721;28;20457;-84
2022/07/01 00:55:30;;;;;;;828.80;752.70;;;13.50;99.90;;;;;;5005075;28;20457;-84
2022/07/01 00:58:00;;;;;;;817.07;743.57;;;13.60;99.90;;;;;;5005274;28;20478;-84
2022/07/01 01:00:34;;;;;;;812.27;737.33;;;13.60;99.90;;;;;;5004416;28;20481;-85
2022/07/01 01:03:05;;;;;;;811.57;736.10;;;13.50;99.90;;;;;;5004776;28;20474;-84
2022/07/01 01:05:32;;;;;;;811.67;736.90;;;13.50;99.90;;;;;;5004924;28;20450;-83
2022/07/01 01:08:03;;;;;;;804.67;729.77;;;13.50;99.90;;;;;;5004991;28;20494;-84
2022/07/01 01:10:35;;;;;;;816.43;741.70;;;13.50;99.90;;;;;;5004600;28;20477;-84
2022/07/01 01:13:05;;;;;;;809.03;733.47;;;13.50;99.90;;;;;;5005171;28;20480;-84
2022/07/01 01:15:37;;;;;;;803.97;728.67;;;13.40;99.90;;;;;;5004680;28;20464;-84
2022/07/01 01:18:06;;;;;;;820.47;745.83;;;13.40;99.90;;;;;;5005334;28;20553;-84
2022/07/01 01:20:36;;;;;;;802.47;726.97;;;13.30;99.90;;;;;;5005361;28;20461;-86
2022/07/01 01:23:04;;;;;;;801.67;727.13;;;13.40;99.90;;;;;;5005099;28;20509;-85
2022/07/01 01:25:31;;;;;;;808.30;732.63;;;13.30;99.90;;;;;;5005739;28;20464;-85
2022/07/01 01:27:59;;;;;;;793.47;718.27;;;13.30;99.90;;;;;;5006002;28;20466;-84
2022/07/01 01:30:26;;;;;;;819.57;744.00;;;13.30;99.90;;;;;;5005344;28;20485;-83
2022/07/01 01:32:53;;;;;;;797.87;722.90;;;13.30;99.90;;;;;;5006887;28;20455;-84
2022/07/01 01:35:21;;;;;;;787.60;712.90;;;13.30;99.90;;;;;;5007113;28;20450;-83
2022/07/01 01:37:50;;;;;;;799.47;723.97;;;13.30;99.90;;;;;;5006961;28;20470;-85
2022/07/01 01:40:17;;;;;;;798.97;722.37;;;13.20;99.90;;;;;;5006315;28;20458;-84
2022/07/01 01:42:46;;;;;;;805.80;728.20;;;13.20;99.90;;;;;;5006158;28;20516;-86
2022/07/01 01:45:13;;;;;;;806.30;727.90;;;13.10;99.90;;;;;;5005907;28;20454;-84
2022/07/01 01:47:44;;;;;;;805.33;726.33;;;13.10;99.90;;;;;;5006638;28;20478;-84
2022/07/01 01:50:14;;;;;;;850.70;771.23;;;13.10;99.90;;;;;;5006389;28;20512;-84
2022/07/01 01:52:43;;;;;;;813.43;734.13;;;13.10;99.90;;;;;;5005674;28;20461;-83
2022/07/01 01:55:12;;;;;;;824.27;743.30;;;13.00;99.90;;;;;;5005820;28;20450;-83
2022/07/01 01:57:38;;;;;;;810.10;730.10;;;13.00;99.90;;;;;;5006525;28;20475;-85
2022/07/01 02:00:07;;;;;;;809.87;729.30;;;13.00;99.90;;;;;;5005930;28;20454;-83
2022/07/01 02:02:36;;;;;;;848.03;767.77;;;13.00;99.90;;;;;;5006439;28;20492;-84
2022/07/01 02:05:03;;;;;;;806.37;725.90;;;12.90;99.90;;;;;;5005935;28;20441;-83
2022/07/01 02:07:30;;;;;;;823.27;742.67;;;12.90;99.90;;;;;;5004619;28;20461;-84
2022/07/01 02:09:58;;;;;;;820.27;740.07;;;12.90;99.90;;;;;;5004032;28;20458;-84
2022/07/01 02:12:31;;;;;;;830.33;748.97;;;13.00;99.90;;;;;;5005007;28;20478;-83
2022/07/01 02:15:08;;;;;;;850.17;769.00;;;13.00;99.90;;;;;;5005096;28;20465;-83
2022/07/01 02:17:35;;;;;;;860.70;778.77;;;12.90;99.90;;;;;;5002526;28;20485;-83
2022/07/01 02:20:02;;;;;;;845.53;765.00;;;12.90;99.90;;;;;;5005728;28;20454;-84
2022/07/01 02:22:29;;;;;;;872.27;792.47;;;13.00;99.90;;;;;;5005199;28;20454;-82
2022/07/01 02:24:56;;;;;;;849.97;770.40;;;13.10;99.90;;;;;;5005238;28;20446;-83
2022/07/01 02:27:25;;;;;;;843.80;765.23;;;13.00;99.90;;;;;;5006064;28;20482;-83
2022/07/01 02:29:53;;;;;;;840.77;761.83;;;12.90;99.90;;;;;;5005271;28;20454;-83
2022/07/01 02:32:20;;;;;;;846.90;767.50;;;13.00;99.90;;;;;;5004914;28;20557;-83
2022/07/01 02:34:47;;;;;;;843.17;764.47;;;13.10;99.90;;;;;;5005373;28;20460;-83
2022/07/01 02:37:14;;;;;;;835.80;757.77;;;13.10;99.90;;;;;;5006255;28;20479;-83
2022/07/01 02:39:41;;;;;;;846.20;767.47;;;13.10;99.90;;;;;;5005524;28;20457;-83
2022/07/01 02:42:27;;;;;;;851.33;774.17;;;13.20;99.90;;;;;;5005827;28;20464;-83
2022/07/01 02:44:55;;;;;;;827.47;751.30;;;13.20;99.90;;;;;;5004706;28;20458;-83
2022/07/01 02:47:25;;;;;;;822.70;747.00;;;13.10;99.90;;;;;;5004414;28;20474;-83
2022/07/01 02:49:57;;;;;;;810.43;735.37;;;13.10;99.90;;;;;;5004996;28;20977;-83
2022/07/01 02:52:24;;;;;;;812.10;737.00;;;13.10;99.90;;;;;;5004600;28;20902;-83
2022/07/01 02:54:52;;;;;;;841.27;765.70;;;13.00;99.90;;;;;;5004052;28;20474;-82
2022/07/01 02:57:19;;;;;;;833.60;758.67;;;13.00;99.90;;;;;;5003415;28;20482;-83
2022/07/01 02:59:50;;;;;;;825.70;751.47;;;13.00;99.90;;;;;;5005296;28;20474;-84
2022/07/01 03:02:19;;;;;;;856.23;779.20;;;12.90;99.90;;;;;;5004735;28;20446;-83
2022/07/01 03:04:46;;;;;;;851.90;776.57;;;12.90;99.90;;;;;;5004190;28;20458;-83
2022/07/01 03:07:14;;;;;;;830.93;756.53;;;12.90;99.90;;;;;;5004988;28;20473;-83
2022/07/01 03:09:47;;;;;;;797.57;725.40;;;12.90;99.90;;;;;;5004881;28;20457;-84
2022/07/01 03:12:34;;;;;;;785.23;713.23;;;12.90;99.90;;;;;;5005426;28;20562;-84
2022/07/01 03:15:06;;;;;;;801.47;728.70;;;12.90;99.90;;;;;;5004958;28;20442;-83
2022/07/01 03:17:42;;;;;;;787.90;716.13;;;12.90;99.90;;;;;;5005196;28;21021;-84
2022/07/01 03:20:13;;;;;;;797.73;725.83;;;12.90;99.90;;;;;;5004530;28;20434;-82
2022/07/01 03:22:45;;;;;;;790.10;717.40;;;12.80;99.90;;;;;;5005332;28;20545;-83
2022/07/01 03:25:13;;;;;;;813.87;739.90;;;12.90;99.90;;;;;;5004201;28;20462;-84
2022/07/01 03:27:44;;;;;;;805.93;732.03;;;12.90;99.90;;;;;;5004394;28;20529;-83
2022/07/01 03:30:12;;;;;;;780.93;709.40;;;12.80;99.90;;;;;;5003176;28;20458;-84
2022/07/01 03:32:40;;;;;;;778.93;708.33;;;13.00;99.90;;;;;;5005173;28;20474;-84
2022/07/01 03:37:49;;;;;;;790.30;719.33;;;13.00;99.90;;;;;;5003975;28;20466;-83
2022/07/01 03:40:16;;;;;;;803.20;732.70;;;12.90;99.90;;;;;;5004312;28;20446;-85
2022/07/01 03:42:43;;;;;;;788.50;717.93;;;12.90;99.90;;;;;;5004510;28;20456;-83
2022/07/01 03:45:10;;;;;;;775.10;705.40;;;12.90;99.90;;;;;;5004833;28;20442;-84
2022/07/01 03:47:37;;;;;;;773.87;704.97;;;12.90;99.90;;;;;;5004033;28;20553;-84
2022/07/01 03:50:08;;;;;;;760.30;693.03;;;13.00;99.90;;;;;;5003928;28;20462;-83
2022/07/01 03:52:35;;;;;;;797.53;729.30;;;13.00;99.90;;;;;;5004711;28;20462;-82
2022/07/01 03:55:04;;;;;;;765.47;698.27;;;13.00;99.90;;;;;;5004527;28;20458;-82
2022/07/01 03:57:31;;;;;;;770.60;702.00;;;13.00;99.90;;;;;;5004340;28;21018;-82
2022/07/01 04:00:02;;;;;;;776.73;708.70;;;13.00;99.90;;;;;;5004749;28;20501;-82
2022/07/01 04:02:31;;;;;;;758.47;690.67;;;13.00;99.90;;;;;;5005819;28;20458;-82
2022/07/01 04:05:01;;;;;;;766.97;697.80;;;13.00;99.90;;;;;;5004792;28;20478;-83
2022/07/01 04:07:32;;;;;;;786.53;716.23;;;13.10;99.90;;;;;;5004409;28;20478;-83
2022/07/01 04:10:02;;;;;;;814.67;742.47;;;13.10;99.90;;;;;;5005789;28;20540;-83
2022/07/01 04:12:29;;;;;;;814.77;742.87;;;13.10;99.90;;;;;;5004620;28;20497;-83
2022/07/01 04:14:57;;;;;;;779.13;708.37;;;13.20;99.90;;;;;;5004288;28;20958;-83
2022/07/01 04:17:24;;;;;;;758.30;689.60;;;13.20;99.90;;;;;;5004495;28;20478;-84
2022/07/01 04:19:51;;;;;;;753.33;685.43;;;13.30;99.90;;;;;;5003970;28;20458;-82
2022/07/01 04:22:32;;;;;;;748.07;682.90;;;13.30;99.90;;;;;;5004128;28;20477;-84
2022/07/01 04:25:03;;;;;;;766.20;703.03;;;13.40;99.90;;;;;;5003951;28;20442;-82
2022/07/01 04:27:30;;;;;;;727.30;666.50;;;13.40;99.90;;;;;;5003274;28;20497;-83
2022/07/01 04:29:57;;;;;;;717.73;661.17;;;13.40;99.90;;;;;;5002918;28;20454;-83
2022/07/01 04:32:26;;;;;;;726.90;670.03;;;13.50;99.90;;;;;;5002505;28;20485;-82
2022/07/01 04:34:54;;;;;;;706.13;653.70;;;13.50;99.90;;;;;;5002892;28;20453;-83
2022/07/01 04:37:21;;;;;;;716.90;664.90;;;13.50;99.90;;;;;;5002771;28;20565;-83
2022/07/01 04:39:48;;;;;;;723.57;672.07;;;13.50;99.90;;;;;;5003934;28;20493;-83
2022/07/01 04:42:17;;;;;;;719.30;670.10;;;13.40;99.90;;;;;;5003668;28;20454;-83
2022/07/01 04:44:44;;;;;;;740.13;688.87;;;13.50;99.90;;;;;;5001606;28;20454;-82
2022/07/01 04:47:12;;;;;;;742.10;689.60;;;13.50;99.90;;;;;;5002642;28;20474;-83
2022/07/01 04:49:39;;;;;;;752.73;699.30;;;13.50;99.90;;;;;;5002245;28;20450;-83
2022/07/01 04:52:06;;;;;;;741.00;688.07;;;13.50;99.90;;;;;;5003461;28;20556;-83
2022/07/01 04:54:33;;;;;;;734.93;683.33;;;13.50;99.90;;;;;;5002755;28;20462;-83
2022/07/01 04:57:00;;;;;;;725.87;676.33;;;13.50;99.90;;;;;;5002997;28;20484;-83
2022/07/01 04:59:28;;;;;;;739.77;688.37;;;13.60;99.90;;;;;;5003364;28;20533;-83
2022/07/01 05:01:55;;;;;;;747.07;692.80;;;13.60;99.90;;;;;;5003263;28;20450;-83
2022/07/01 05:04:23;;;;;;;748.43;696.63;;;13.70;99.90;;;;;;5002346;28;20481;-83
2022/07/01 05:06:50;;;;;;;732.23;681.93;;;13.70;99.90;;;;;;5001673;28;20485;-82
2022/07/01 05:09:16;;;;;;;746.37;696.00;;;13.70;99.90;;;;;;5002348;28;20848;-81
2022/07/01 05:11:43;;;;;;;731.40;683.10;;;13.70;99.90;;;;;;5001158;28;20474;-82
2022/07/01 05:14:10;;;;;;;739.97;690.70;;;13.70;99.90;;;;;;5001353;28;20540;-83
2022/07/01 05:16:38;;;;;;;747.23;699.07;;;13.80;99.90;;;;;;5002182;28;20450;-82
2022/07/01 05:22:01;;;;;;;738.40;693.30;;;13.90;99.90;;;;;;5005296;28;20457;-82
2022/07/01 05:24:31;;;;;;;714.30;671.97;;;14.10;99.90;;;;;;5006312;28;20528;-82
2022/07/01 05:26:59;;;;;;;730.87;685.77;;;14.20;99.90;;;;;;5005383;28;20473;-82
2022/07/01 05:29:28;;;;;;;699.60;660.70;;;14.40;99.90;;;;;;5006497;28;20820;-82
2022/07/01 05:31:57;;;;;;;672.87;638.70;;;14.60;99.90;;;;;;5005241;28;20541;-82
2022/07/01 05:34:26;;;;;;;625.77;596.20;;;14.70;99.90;;;;;;5003884;28;20471;-81
2022/07/01 05:37:03;;;;;;;;;;;;;;;;;;;;;
2022/07/01 05:39:33;;;;;;;501.27;481.70;;;14.90;99.90;;;;;;5004362;28;20452;-82
2022/07/01 05:42:01;;;;;;;468.63;451.13;;;15.00;99.90;;;;;;5002828;28;20478;-81
2022/07/01 05:44:33;;;;;;;403.50;389.97;;;15.00;99.90;;;;;;5002944;28;20458;-82
2022/07/01 05:47:01;;;;;;;377.80;365.53;;;15.10;99.90;;;;;;5003851;28;20484;-83
2022/07/01 05:49:28;;;;;;;240.53;232.63;;;15.10;99.90;;;;;;5002880;28;20450;-81
2022/07/01 05:51:55;;;;;;;162.83;157.60;;;15.00;99.90;;;;;;5005431;28;20474;-82
2022/07/01 05:54:23;;;;;;;269.37;261.00;;;15.10;99.90;;;;;;5005361;28;20876;-82
2022/07/01 05:56:56;;;;;;;248.30;240.80;;;15.10;99.90;;;;;;5004673;28;20458;-83
2022/07/01 05:59:29;;;;;;;262.47;254.53;;;15.10;99.90;;;;;;5006048;28;20454;-82
2022/07/01 06:01:56;;;;;;;171.47;165.67;;;15.20;99.90;;;;;;5006075;28;20521;-83
2022/07/01 06:04:25;;;;;;;129.83;125.37;;;15.30;99.90;;;;;;5005061;28;20489;-82
2022/07/01 06:06:52;;;;;;;108.80;104.60;;;15.50;99.90;;;;;;5003017;28;20487;-82
2022/07/01 06:09:19;;;;;;;59.37;56.67;;;15.60;99.90;;;;;;5001534;28;20549;-82
2022/07/01 06:11:46;;;;;;;74.23;71.43;;;15.60;99.90;;;;;;5004773;28;20569;-83
2022/07/01 06:14:13;;;;;;;52.27;49.97;;;15.60;99.90;;;;;;5006861;28;20451;-83
2022/07/01 06:16:40;;;;;;;76.67;73.67;;;15.60;99.90;;;;;;5007284;28;20458;-83
2022/07/01 06:19:09;;;;;;;75.27;72.47;;;15.60;99.90;;;;;;5006458;28;20530;-83
2022/07/01 06:21:43;;;;;;;109.27;105.43;;;15.70;99.90;;;;;;5006897;28;20548;-83
2022/07/01 06:24:12;;;;;;;63.10;60.60;;;15.70;99.90;;;;;;5005874;28;20497;-83
2022/07/01 06:26:46;;;;;;;55.37;52.97;;;15.80;99.90;;;;;;5006729;28;20456;-83
2022/07/01 06:29:14;;;;;;;28.80;26.90;;;15.80;99.90;;;;;;5005217;28;20462;-83
2022/07/01 06:31:52;;;;;;;17.67;16.37;;;15.80;99.90;;;;;;5005651;28;20495;-84
2022/07/01 06:34:20;;;;;;;13.90;12.90;;;16.00;99.90;;;;;;5007819;28;20874;-84
2022/07/01 06:36:52;;;;;;;9.87;6.20;;;16.20;99.90;;;;;;5005320;28;20486;-84
2022/07/01 06:39:53;;;;;;;12.83;9.47;;;16.10;99.90;;;;;;4991055;28;20489;-84
2022/07/01 06:42:28;;;;;;;8.40;6.57;;;16.50;99.90;;;;;;4990998;28;20495;-84
2022/07/01 06:45:06;;;;;;;9.60;6.30;;;16.70;99.90;;;;;;5007171;28;20455;-84
2022/07/01 06:47:39;;;;;;;8.33;5.20;;;16.90;99.90;;;;;;5004918;28;20491;-84
2022/07/01 06:50:45;;;;;;;8.90;4.93;;;17.10;99.90;;;;;;5005576;28;20519;-83
2022/07/01 06:53:23;;;;;;;7.50;4.37;;;17.50;99.10;;;;;;5006301;28;20490;-84
2022/07/01 06:55:55;;;;;;;8.57;4.80;;;17.60;97.80;;;;;;4988499;28;20499;-83
2022/07/01 06:58:27;;;;;;;12.40;4.20;;;17.90;97.10;;;;;;5005981;28;20538;-83
2022/07/01 07:00:57;;;;;;;11.37;4.70;;;17.80;96.10;;;;;;5005396;28;20455;-82
2022/07/01 07:03:31;;;;;;;9.20;5.00;;;17.60;96.50;;;;;;5004977;28;20511;-83
2022/07/01 07:06:02;;;;;;;8.23;4.40;;;17.40;96.30;;;;;;4987354;28;20484;-84
2022/07/01 07:08:34;;;;;;;11.90;4.73;;;17.10;96.80;;;;;;5005213;28;20482;-83
2022/07/01 07:11:08;;;;;;;6.60;4.10;;;17.30;97.40;;;;;;5006150;28;20462;-83
2022/07/01 07:13:43;;;;;;;7.97;4.77;;;17.50;97.40;;;;;;5005300;28;20500;-83
2022/07/01 07:16:33;;;;;;;;;;;;;;;;;;;;;
2022/07/01 07:19:25;;;;;;;9.93;5.30;;;18.00;96.40;;;;;;5001310;28;20482;-83
2022/07/01 07:22:15;;;;;;;8.33;4.50;;;18.10;95.40;;;;;;5003088;28;20842;-84
2022/07/01 07:25:10;;;;;;;8.07;4.27;;;17.90;94.50;;;;;;5002173;28;20463;-84
2022/07/01 07:27:55;;;;;;;10.20;4.50;;;18.00;93.30;;;;;;5003306;28;20479;-86
2022/07/01 07:30:25;;;;;;;10.00;5.00;;;18.00;93.50;;;;;;5000521;28;20458;-85
2022/07/01 07:33:13;;;;;;;13.43;4.47;;;18.10;93.10;;;;;;5003477;28;20556;-84
2022/07/01 07:35:48;;;;;;;8.80;4.37;;;17.90;93.90;;;;;;5003097;28;20485;-84
2022/07/01 07:38:32;;;;;;;10.53;4.40;;;18.70;94.10;;;;;;5000956;28;20475;-87
2022/07/01 07:41:20;;;;;;;7.80;3.63;;;19.30;92.20;;;;;;5002964;28;20457;-85
2022/07/01 07:44:26;;;;;;;10.27;3.67;;;19.20;90.50;;;;;;5002948;28;20516;-85
2022/07/01 07:47:28;;;;;;;7.20;4.10;;;19.80;88.50;;;;;;5002207;28;21233;-85
2022/07/01 07:50:10;;;;;;;8.63;4.50;;;19.30;85.40;;;;;;4983894;28;20459;-83
2022/07/01 07:53:01;;;;;;;12.63;4.77;;;19.20;86.80;;;;;;5001492;28;20574;-84
2022/07/01 07:55:51;;;;;;;9.10;3.80;;;19.30;85.50;;;;;;5000410;28;20458;-84
2022/07/01 07:58:41;;;;;;;5.63;2.97;;;20.00;86.10;;;;;;5000796;28;20509;-84
2022/07/01 08:01:24;;;;;;;8.33;3.40;;;20.10;83.80;;;;;;5001055;28;20811;-86
2022/07/01 08:07:09;;;;;;;8.53;2.63;;;20.10;81.40;;;;;;5001019;28;20539;-82
2022/07/01 08:10:10;;;;;;;6.40;2.50;;;20.80;82.00;;;;;;5000298;28;20453;-83
2022/07/01 08:12:47;;;;;;;6.27;2.67;;;21.10;78.50;;;;;;4998215;28;20477;-84
2022/07/01 08:19:06;;;;;;;7.27;2.30;;;20.00;74.50;;;;;;4999509;28;20549;-85
2022/07/01 08:22:09;;;;;;;5.50;2.57;;;19.30;77.00;;;;;;5000893;28;20511;-83
2022/07/01 08:25:06;;;;;;;8.87;2.77;;;19.00;79.60;;;;;;5000774;28;20459;-84
2022/07/01 08:31:15;;;;;;;7.23;2.33;;;18.80;80.30;;;;;;4999125;28;20464;-84
2022/07/01 08:34:21;;;;;;;5.10;2.67;;;19.40;79.40;;;;;;4999848;28;20473;-83
2022/07/01 08:37:04;;;;;;;5.97;2.57;;;19.50;77.70;;;;;;4998034;28;20459;-85
2022/07/01 08:39:43;;;;;;;6.73;2.60;;;19.60;76.40;;;;;;4999447;28;20538;-85
2022/07/01 08:42:25;;;;;;;5.80;2.57;;;19.80;74.60;;;;;;5000472;28;20454;-85
2022/07/01 08:44:53;;;;;;;5.10;2.47;;;20.60;73.80;;;;;;5000001;28;20539;-85
2022/07/01 08:47:25;;;;;;;9.37;2.30;;;21.40;67.50;;;;;;4999515;28;20478;-85
2022/07/01 08:50:02;;;;;;;5.10;1.50;;;22.10;64.60;;;;;;4999319;28;20537;-85
2022/07/01 08:52:32;;;;;;;6.83;2.07;;;22.20;59.80;;;;;;4998825;28;20484;-83
2022/07/01 08:54:59;;;;;;;6.00;1.80;;;22.10;58.90;;;;;;5001763;28;20499;-84
2022/07/01 08:57:31;;;;;;;7.30;2.30;;;22.60;58.80;;;;;;5003755;28;20468;-84
2022/07/01 09:00:03;;;;;;;7.63;1.73;;;22.30;54.30;;;;;;5003447;28;20971;-85
2022/07/01 09:02:54;;;;;;;6.10;1.80;;;22.40;55.50;;;;;;5003531;28;20486;-85
2022/07/01 09:05:34;;;;;;;7.70;1.70;;;21.90;52.30;;;;;;5002769;28;20554;-85
2022/07/01 09:08:05;;;;;;;4.60;1.93;;;21.60;54.70;;;;;;5002438;28;20483;-86
2022/07/01 09:10:34;;;;;;;5.93;2.10;;;21.40;54.50;;;;;;5002839;28;20554;-85
2022/07/01 09:18:39;;;;;;;7.37;2.50;;;21.50;54.70;;;;;;5002912;28;20482;-84
2022/07/01 09:21:16;;;;;;;8.10;2.20;;;21.70;58.90;;;;;;4984656;28;20454;-83
2022/07/01 09:23:55;;;;;;;6.00;1.43;;;21.50;54.60;;;;;;5002796;28;20934;-84
2022/07/01 09:26:33;;;;;;;6.53;2.17;;;21.30;52.50;;;;;;5002868;28;20461;-84
2022/07/01 09:29:09;;;;;;;5.50;2.37;;;21.50;57.60;;;;;;5002447;28;20479;-84
2022/07/01 09:31:52;;;;;;;8.70;2.17;;;22.00;55.00;;;;;;5002418;28;20460;-84
2022/07/01 09:34:33;;;;;;;8.37;1.87;;;23.00;56.00;;;;;;5002118;28;20544;-84
2022/07/01 09:37:16;;;;;;;5.03;1.73;;;24.40;48.50;;;;;;5002080;28;20570;-85
2022/07/01 09:39:50;;;;;;;4.23;1.47;;;24.20;39.20;;;;;;5001769;28;21003;-86
2022/07/01 09:42:33;;;;;;;4.20;1.40;;;23.10;34.40;;;;;;5001188;28;20458;-83
2022/07/01 09:45:02;;;;;;;5.10;1.80;;;22.30;34.20;;;;;;5004940;28;20455;-82
2022/07/01 09:47:30;;;;;;;5.97;2.00;;;22.70;42.10;;;;;;5008160;28;20480;-83
2022/07/01 09:49:58;;;;;;;9.30;2.20;;;22.60;37.70;;;;;;5007020;28;20459;-82
2022/07/01 09:52:26;;;;;;;5.10;1.70;;;23.00;38.10;;;;;;5006457;28;20466;-82
2022/07/01 09:54:53;;;;;;;5.90;1.50;;;23.70;38.70;;;;;;5006458;28;20481;-82
2022/07/01 09:57:21;;;;;;;7.87;3.00;;;23.90;35.30;;;;;;5002594;28;20564;-83
2022/07/01 09:59:49;;;;;;;5.37;1.60;;;24.70;37.10;;;;;;5005559;28;20521;-83
2022/07/01 10:02:19;;;;;;;6.67;1.83;;;24.30;30.70;;;;;;5006817;28;20487;-82
2022/07/01 10:04:52;;;;;;;4.83;1.30;;;24.00;32.00;;;;;;5004327;28;20454;-83
2022/07/01 10:07:37;;;;;;;6.03;1.97;;;24.70;35.20;;;;;;5002970;28;20509;-84
2022/07/01 10:10:17;;;;;;;7.80;1.80;;;24.50;30.20;;;;;;4999201;28;20996;-84
2022/07/01 10:12:47;;;;;;;5.13;1.70;;;25.30;30.50;;;;;;4998775;28;20962;-85
2022/07/01 10:15:26;;;;;;;5.73;1.97;;;26.20;24.00;;;;;;4997942;28;20450;-84
2022/07/01 10:17:53;;;;;;;6.37;1.60;;;26.60;21.30;;;;;;4998976;28;20485;-84
2022/07/01 10:20:24;;;;;;;5.37;1.53;;;26.90;21.80;;;;;;4996741;28;20954;-85
2022/07/01 10:23:02;;;;;;;7.10;1.43;;;27.30;19.50;;;;;;4996638;28;20461;-85
2022/07/01 10:25:43;;;;;;;4.53;1.00;;;27.00;16.90;;;;;;4996924;28;20458;-85
2022/07/01 10:28:22;;;;;;;4.87;1.33;;;26.70;16.30;;;;;;4996854;28;20557;-84
2022/07/01 10:30:51;;;;;;;8.60;1.53;;;25.90;16.30;;;;;;4998319;28;21158;-84
2022/07/01 10:33:29;;;;;;;5.17;1.17;;;25.40;16.50;;;;;;4998386;28;20477;-84
2022/07/01 10:35:56;;;;;;;6.30;1.30;;;24.80;15.60;;;;;;4997918;28;20977;-83
2022/07/01 10:38:24;;;;;;;4.10;1.03;;;24.30;18.50;;;;;;4996510;28;20992;-84
2022/07/01 10:40:51;;;;;;;4.10;1.00;;;23.60;20.60;;;;;;4998832;28;20534;-83
2022/07/01 10:43:32;;;;;;;6.13;1.00;;;23.50;23.20;;;;;;4998738;28;20486;-84
2022/07/01 10:45:59;;;;;;;6.53;1.10;;;23.60;21.80;;;;;;4997826;28;20805;-84
2022/07/01 10:48:26;;;;;;;5.43;1.47;;;23.90;21.80;;;;;;4997572;28;21057;-85
2022/07/01 10:50:54;;;;;;;4.23;1.20;;;24.70;23.10;;;;;;4997894;28;20548;-84
2022/07/01 10:53:21;;;;;;;4.87;1.17;;;24.80;19.60;;;;;;4996828;28;20485;-84
2022/07/01 10:55:52;;;;;;;4.73;1.43;;;24.60;17.50;;;;;;4996439;28;20525;-84
2022/07/01 10:58:20;;;;;;;7.40;1.20;;;24.70;16.80;;;;;;4997154;28;21014;-84
2022/07/01 11:00:50;;;;;;;6.97;1.33;;;25.10;17.60;;;;;;4996759;28;20525;-84
2022/07/01 11:03:22;;;;;;;7.97;1.70;;;25.10;16.90;;;;;;4996621;28;20457;-85
2022/07/01 11:05:55;;;;;;;4.00;0.83;;;23.80;14.90;;;;;;4997239;28;20454;-84
2022/07/01 11:08:23;;;;;;;7.77;1.47;;;23.80;15.00;;;;;;4997348;28;20478;-85
2022/07/01 11:10:58;;;;;;;6.17;1.20;;;24.00;19.40;;;;;;4996351;28;20486;-87
2022/07/01 11:13:26;;;;;;;5.87;1.27;;;24.80;22.60;;;;;;4995823;28;20977;-85
2022/07/01 11:15:58;;;;;;;3.87;0.97;;;24.60;17.40;;;;;;4996163;28;20460;-84
2022/07/01 11:18:26;;;;;;;4.30;1.00;;;24.10;17.70;;;;;;4996436;28;20490;-84
2022/07/01 11:20:53;;;;;;;6.03;1.00;;;24.20;18.30;;;;;;4997014;28;20903;-84
2022/07/01 11:23:22;;;;;;;4.10;1.00;;;24.90;14.60;;;;;;4996848;28;20450;-84
2022/07/01 11:25:50;;;;;;;5.33;1.00;;;25.70;14.40;;;;;;4997290;28;20517;-84
2022/07/01 11:28:20;;;;;;;8.33;1.10;;;26.80;12.20;;;;;;4995923;28;20466;-84
2022/07/01 11:30:47;;;;;;;4.70;1.27;;;25.50;9.60;;;;;;4996141;28;20521;-85
2022/07/01 11:33:14;;;;;;;5.00;0.90;;;25.60;9.00;;;;;;4995774;28;20536;-84
2022/07/01 11:41:22;;;;;;;5.47;1.10;;;24.80;13.50;;;;;;4996259;28;20445;-84
2022/07/01 11:43:51;;;;;;;4.77;1.10;;;24.80;10.40;;;;;;4996267;28;20481;-84
2022/07/01 11:46:18;;;;;;;3.60;0.70;;;24.20;12.00;;;;;;4996406;28;20480;-84
2022/07/01 11:48:51;;;;;;;4.77;1.10;;;23.70;11.50;;;;;;4997573;28;21080;-84
2022/07/01 11:51:19;;;;;;;6.97;0.80;;;24.30;15.30;;;;;;4998445;28;20441;-84
2022/07/01 11:53:48;;;;;;;4.80;0.87;;;24.40;10.10;;;;;;4997887;28;21046;-83
2022/07/01 11:56:16;;;;;;;5.30;0.90;;;24.80;12.00;;;;;;4997213;28;20957;-84
2022/07/01 11:58:48;;;;;;;4.47;1.00;;;24.60;7.90;;;;;;4996947;28;20474;-84
2022/07/01 12:01:28;;;;;;;6.50;0.93;;;24.80;11.90;;;;;;4997187;28;20469;-84
2022/07/01 12:03:55;;;;;;;4.97;0.93;;;25.50;7.80;;;;;;4997344;28;20465;-84
2022/07/01 12:06:25;;;;;;;6.40;1.07;;;25.80;7.30;;;;;;4996947;28;20464;-84
2022/07/01 12:08:53;;;;;;;4.83;0.93;;;25.40;6.70;;;;;;4996431;28;20473;-83
2022/07/01 12:11:24;;;;;;;7.20;1.00;;;25.10;8.20;;;;;;4996679;28;20458;-84
2022/07/01 12:13:52;;;;;;;4.03;1.00;;;25.60;4.20;;;;;;4996132;28;20829;-83
2022/07/01 12:16:20;;;;;;;5.13;1.17;;;27.30;4.00;;;;;;4995380;28;20446;-85
2022/07/01 12:19:07;;;;;;;;;;;;;;;;;;;;;
2022/07/01 12:21:50;;;;;;;6.83;1.20;;;27.80;1.80;;;;;;4996022;28;20465;-84
2022/07/01 12:24:18;;;;;;;4.13;1.07;;;27.80;1.00;;;;;;4996273;28;20870;-84
2022/07/01 12:26:53;;;;;;;5.53;1.10;;;27.80;1.60;;;;;;4996554;28;20461;-83
2022/07/01 12:29:22;;;;;;;5.50;0.90;;;27.30;1.00;;;;;;4997113;28;20438;-85
2022/07/01 12:32:00;;;;;;;4.40;1.07;;;27.90;1.00;;;;;;4998376;28;20516;-84
2022/07/01 12:34:45;;;;;;;4.83;0.90;;;28.00;1.00;;;;;;4999206;28;20960;-85
2022/07/01 12:37:18;;;;;;;4.97;0.93;;;28.10;1.00;;;;;;4998671;28;20565;-84
2022/07/01 12:39:46;;;;;;;4.70;1.07;;;28.10;1.00;;;;;;4999270;28;20458;-85
2022/07/01 12:42:24;;;;;;;5.40;0.90;;;28.60;1.00;;;;;;4998807;28;20553;-85
2022/07/01 12:44:56;;;;;;;4.90;0.90;;;27.90;1.00;;;;;;4999025;28;20493;-84
2022/07/01 12:47:28;;;;;;;3.80;0.80;;;27.50;1.00;;;;;;4998689;28;20520;-84
2022/07/01 12:50:17;;;;;;;5.30;1.00;;;27.10;1.00;;;;;;4999787;28;20501;-84
2022/07/01 12:52:57;;;;;;;4.90;0.93;;;27.70;1.00;;;;;;5000289;28;20450;-83
2022/07/01 12:55:35;;;;;;;3.90;0.90;;;27.90;1.00;;;;;;4998443;28;20458;-85
2022/07/01 12:58:09;;;;;;;6.20;0.93;;;27.60;1.00;;;;;;4998242;28;20476;-84
2022/07/01 13:00:39;;;;;;;4.00;0.83;;;26.60;1.00;;;;;;4998804;28;20461;-83
2022/07/01 13:03:09;;;;;;;4.40;0.80;;;26.40;1.00;;;;;;4998835;28;20469;-84
2022/07/01 13:05:41;;;;;;;4.40;0.90;;;27.70;1.00;;;;;;4998962;28;20505;-84
2022/07/01 13:08:13;;;;;;;6.33;1.20;;;28.60;1.00;;;;;;4998868;28;20478;-84
2022/07/01 13:10:40;;;;;;;4.87;0.97;;;29.30;1.00;;;;;;4998845;28;20473;-84
2022/07/01 13:13:07;;;;;;;4.20;1.10;;;29.90;1.00;;;;;;4998045;28;20458;-83
2022/07/01 13:15:35;;;;;;;6.83;1.00;;;29.90;1.00;;;;;;4998036;28;20450;-84
2022/07/01 13:18:15;;;;;;;4.20;0.87;;;30.70;1.00;;;;;;4998299;28;20467;-85
2022/07/01 13:20:46;;;;;;;6.87;1.07;;;29.90;1.00;;;;;;4996741;28;20857;-85
2022/07/01 13:23:21;;;;;;;5.37;1.10;;;27.90;1.00;;;;;;4997265;28;20445;-85